Time;durP1;ratioP1;P1;durP2;ratioP2;P2;SDS_P1;SDS_P2;PMS_P1;PMS_P2;Temp;Humidity;BMP_temperature;BMP_pressure;BME280_temperature;BME280_humidity;BME280_pressure;Samples;Min_cycle;Max_cycle;Signal;HPM_P1;HPM_P2
2024/03/09 00:00:01;;;;;;;15.40;5.33;;;;;;;3.37;100.00;95221.25;5036083;28;20656;-67
2024/03/09 00:02:28;;;;;;;15.47;5.63;;;;;;;3.30;100.00;95216.84;5035926;28;20325;-67
2024/03/09 00:04:55;;;;;;;13.33;5.80;;;;;;;3.39;100.00;95221.13;5034866;28;20229;-67
2024/03/09 00:07:23;;;;;;;16.80;6.30;;;;;;;3.27;100.00;95217.16;5035390;28;20679;-67
2024/03/09 00:09:50;;;;;;;16.90;5.57;;;;;;;3.37;100.00;95218.66;5036555;28;20204;-67
2024/03/09 00:12:19;;;;;;;13.67;5.50;;;;;;;3.38;100.00;95216.88;5035359;28;20217;-67
2024/03/09 00:14:45;;;;;;;15.60;5.53;;;;;;;3.40;100.00;95214.91;5034637;28;20225;-67
2024/03/09 00:17:16;;;;;;;15.97;5.73;;;;;;;3.73;100.00;95205.22;5036337;28;20590;-67
2024/03/09 00:19:43;;;;;;;14.93;6.07;;;;;;;3.66;100.00;95204.22;5035787;28;20245;-67
2024/03/09 00:22:09;;;;;;;15.53;5.13;;;;;;;3.79;100.00;95202.00;5035753;28;20234;-67
2024/03/09 00:24:36;;;;;;;16.77;6.43;;;;;;;3.82;100.00;95209.47;5034421;28;20223;-67
2024/03/09 00:27:07;;;;;;;14.70;5.40;;;;;;;3.80;100.00;95208.00;5036312;28;20209;-68
2024/03/09 00:29:34;;;;;;;12.57;5.63;;;;;;;3.71;100.00;95209.78;5035923;28;20201;-68
2024/03/09 00:32:01;;;;;;;13.87;5.50;;;;;;;3.91;100.00;95207.72;5036125;28;20253;-68
2024/03/09 00:34:28;;;;;;;17.10;6.13;;;;;;;4.04;100.00;95208.84;5035276;28;20237;-68
2024/03/09 00:36:57;;;;;;;15.30;6.30;;;;;;;3.93;100.00;95203.94;5035264;28;20212;-68
2024/03/09 00:39:24;;;;;;;15.30;6.67;;;;;;;3.89;100.00;95200.03;5035271;28;20208;-67
2024/03/09 00:41:50;;;;;;;15.93;6.33;;;;;;;3.83;100.00;95192.03;5035405;28;20215;-68
2024/03/09 00:44:17;;;;;;;12.83;5.77;;;;;;;3.67;100.00;95186.81;5034601;28;20248;-67
2024/03/09 00:46:43;;;;;;;13.73;5.43;;;;;;;3.59;100.00;95180.78;5035116;28;20288;-67
2024/03/09 00:49:10;;;;;;;17.47;5.73;;;;;;;3.62;100.00;95181.28;5035593;28;20201;-67
2024/03/09 00:51:38;;;;;;;17.53;6.73;;;;;;;3.97;100.00;95171.38;5035116;28;20576;-67
2024/03/09 00:54:05;;;;;;;14.73;5.67;;;;;;;3.94;100.00;95173.50;5035312;28;20488;-68
2024/03/09 00:56:31;;;;;;;15.13;5.63;;;;;;;3.83;100.00;95176.41;5034790;28;20211;-68
2024/03/09 00:59:00;;;;;;;13.80;5.73;;;;;;;3.98;100.00;95170.38;5035915;28;20208;-67
2024/03/09 01:01:28;;;;;;;15.87;5.70;;;;;;;4.05;100.00;95173.97;5034990;28;20205;-67
2024/03/09 01:03:55;;;;;;;15.10;6.03;;;;;;;3.98;100.00;95175.59;5035913;28;20255;-68
2024/03/09 01:06:23;;;;;;;13.43;5.27;;;;;;;4.01;100.00;95177.06;5036174;28;20205;-67
2024/03/09 01:08:51;;;;;;;13.53;5.63;;;;;;;4.22;100.00;95167.78;5034862;28;20201;-67
2024/03/09 01:11:17;;;;;;;13.60;5.50;;;;;;;4.05;100.00;95168.78;5035093;28;20204;-67
2024/03/09 01:13:45;;;;;;;15.80;6.17;;;;;;;4.07;100.00;95160.78;5035531;28;20220;-67
2024/03/09 01:16:12;;;;;;;14.90;6.30;;;;;;;4.00;100.00;95163.22;5034257;28;20232;-68
2024/03/09 01:18:38;;;;;;;17.17;6.60;;;;;;;4.09;100.00;95164.84;5035212;28;20207;-67
2024/03/09 01:21:07;;;;;;;16.63;6.30;;;;;;;4.09;100.00;95166.66;5035669;28;20570;-67
2024/03/09 01:23:33;;;;;;;13.70;5.90;;;;;;;4.07;100.00;95164.19;5035215;28;20302;-67
2024/03/09 01:26:02;;;;;;;16.10;6.20;;;;;;;4.14;100.00;95156.53;5034399;28;20231;-68
2024/03/09 01:28:28;;;;;;;11.87;5.33;;;;;;;3.77;100.00;95162.25;5035844;28;20205;-67
2024/03/09 01:30:56;;;;;;;13.23;5.33;;;;;;;3.79;100.00;95164.69;5035501;28;20222;-68
2024/03/09 01:33:22;;;;;;;14.03;5.83;;;;;;;3.73;100.00;95166.16;5034514;28;20745;-67
2024/03/09 01:35:49;;;;;;;14.70;6.00;;;;;;;3.52;100.00;95164.19;5034081;28;20225;-68
2024/03/09 01:38:19;;;;;;;13.93;6.33;;;;;;;3.58;100.00;95166.13;5035202;28;20577;-67
2024/03/09 01:40:46;;;;;;;12.77;5.10;;;;;;;3.62;100.00;95167.47;5034773;28;20206;-67
2024/03/09 01:43:16;;;;;;;11.73;4.80;;;;;;;3.75;100.00;95160.78;5035469;28;20229;-67
2024/03/09 01:45:44;;;;;;;14.50;5.60;;;;;;;3.49;100.00;95159.28;5034506;28;20196;-67
2024/03/09 01:48:11;;;;;;;13.23;5.67;;;;;;;3.36;100.00;95156.31;5035481;28;20869;-67
2024/03/09 01:50:38;;;;;;;13.27;4.90;;;;;;;3.40;100.00;95145.44;5035069;28;20227;-67
2024/03/09 01:53:07;;;;;;;15.67;5.97;;;;;;;3.54;100.00;95144.00;5034505;28;20204;-67
2024/03/09 01:55:35;;;;;;;12.13;5.20;;;;;;;3.48;100.00;95142.06;5034215;28;20236;-67
2024/03/09 01:58:03;;;;;;;14.10;5.07;;;;;;;3.32;100.00;95139.41;5034693;28;20778;-67
2024/03/09 02:00:34;;;;;;;12.80;5.63;;;;;;;3.16;100.00;95137.59;5038059;28;20985;-67
2024/03/09 02:03:04;;;;;;;12.77;5.00;;;;;;;2.93;100.00;95145.31;5038744;28;20285;-68
2024/03/09 02:05:36;;;;;;;13.70;5.47;;;;;;;2.84;100.00;95151.44;5037159;28;20202;-67
2024/03/09 02:08:05;;;;;;;15.07;5.23;;;;;;;2.84;100.00;95149.69;5037830;28;20245;-67
2024/03/09 02:10:31;;;;;;;13.53;4.73;;;;;;;2.83;100.00;95153.25;5038369;28;20611;-67
2024/03/09 02:12:58;;;;;;;12.47;5.63;;;;;;;2.68;100.00;95157.41;5038185;28;20381;-67
2024/03/09 02:15:29;;;;;;;11.67;4.37;;;;;;;2.64;100.00;95165.69;5037396;28;20228;-67
2024/03/09 02:17:57;;;;;;;12.50;4.73;;;;;;;2.87;100.00;95156.38;5038489;28;20226;-68
2024/03/09 02:20:25;;;;;;;16.47;4.53;;;;;;;2.86;100.00;95157.31;5038197;28;20722;-67
2024/03/09 02:22:55;;;;;;;12.07;4.83;;;;;;;2.98;100.00;95149.09;5037782;28;20661;-67
2024/03/09 02:25:24;;;;;;;14.83;5.40;;;;;;;2.91;100.00;95157.69;5037004;28;20639;-67
2024/03/09 02:27:52;;;;;;;14.63;5.13;;;;;;;2.73;100.00;95160.34;5037383;28;20204;-67
2024/03/09 02:30:18;;;;;;;15.50;5.60;;;;;;;2.92;100.00;95159.31;5037328;28;20222;-67
2024/03/09 02:32:45;;;;;;;14.93;5.60;;;;;;;2.99;100.00;95150.69;5038348;28;20595;-67
2024/03/09 02:35:12;;;;;;;15.60;5.40;;;;;;;3.02;100.00;95155.59;5036884;28;20647;-67
2024/03/09 02:37:39;;;;;;;12.53;5.40;;;;;;;2.94;100.00;95152.97;5036950;28;20208;-67
2024/03/09 02:40:07;;;;;;;12.97;5.10;;;;;;;2.96;100.00;95153.63;5037733;28;20207;-67
2024/03/09 02:42:38;;;;;;;11.23;4.87;;;;;;;3.02;100.00;95146.00;5038474;28;20680;-67
2024/03/09 02:45:06;;;;;;;14.37;5.93;;;;;;;2.85;100.00;95140.09;5036930;28;20594;-67
2024/03/09 02:47:33;;;;;;;11.47;4.67;;;;;;;2.77;100.00;95145.25;5037756;28;20209;-66
2024/03/09 02:50:00;;;;;;;16.17;6.23;;;;;;;2.70;100.00;95134.66;5037833;28;20204;-67
2024/03/09 02:52:27;;;;;;;14.10;6.10;;;;;;;2.87;100.00;95136.34;5037009;28;20203;-67
2024/03/09 02:54:54;;;;;;;13.37;5.60;;;;;;;2.88;100.00;95126.75;5036781;28;20231;-67
2024/03/09 02:57:20;;;;;;;12.93;5.20;;;;;;;2.56;100.00;95142.25;5037499;28;20207;-66
2024/03/09 02:59:48;;;;;;;14.83;6.07;;;;;;;2.86;100.00;95134.72;5036779;28;20455;-66
2024/03/09 03:03:45;;;;;;;14.57;5.27;;;;;;;2.90;100.00;95145.63;5037038;28;20210;-66
2024/03/09 03:05:00;;;;;;;13.90;4.63;;;;;;;2.94;100.00;95147.78;5036033;28;20278;-67
2024/03/09 03:07:27;;;;;;;16.40;6.17;;;;;;;2.98;100.00;95146.50;5036629;28;20679;-67
2024/03/09 03:09:57;;;;;;;16.43;6.33;;;;;;;2.85;100.00;95148.72;5036853;28;20217;-67
2024/03/09 03:12:23;;;;;;;15.50;4.67;;;;;;;2.62;100.00;95159.81;5037137;28;20208;-67
2024/03/09 03:14:51;;;;;;;11.73;5.13;;;;;;;2.72;100.00;95160.53;5036074;28;20230;-67
2024/03/09 03:17:18;;;;;;;16.30;6.07;;;;;;;2.71;100.00;95164.91;5036623;28;20259;-66
2024/03/09 03:19:44;;;;;;;17.13;5.40;;;;;;;2.84;100.00;95162.69;5037102;28;20215;-67
2024/03/09 03:22:11;;;;;;;14.03;5.93;;;;;;;2.85;100.00;95151.31;5034340;28;20212;-67
2024/03/09 03:24:38;;;;;;;14.20;6.00;;;;;;;2.93;100.00;95146.13;5036187;28;20235;-66
2024/03/09 03:27:04;;;;;;;12.90;5.03;;;;;;;2.78;100.00;95145.09;5036467;28;20258;-66
2024/03/09 03:29:32;;;;;;;12.10;4.97;;;;;;;2.75;100.00;95153.22;5036149;28;20212;-66
2024/03/09 03:32:01;;;;;;;15.57;5.03;;;;;;;3.01;100.00;95164.38;5036659;28;20218;-66
2024/03/09 03:34:31;;;;;;;17.23;6.90;;;;;;;2.95;100.00;95149.38;5035745;28;20329;-66
2024/03/09 03:36:57;;;;;;;15.77;6.67;;;;;;;2.84;100.00;95144.47;5036277;28;20698;-66
2024/03/09 03:39:27;;;;;;;15.50;5.53;;;;;;;2.80;100.00;95140.56;5036606;28;20202;-67
2024/03/09 03:41:53;;;;;;;15.93;6.63;;;;;;;2.85;100.00;95140.91;5036341;28;20538;-67
2024/03/09 03:44:20;;;;;;;14.37;5.73;;;;;;;2.91;100.00;95132.47;5035530;28;21078;-67
2024/03/09 03:46:47;;;;;;;12.80;5.27;;;;;;;2.59;100.00;95124.53;5036921;28;20206;-67
2024/03/09 03:49:15;;;;;;;16.07;4.63;;;;;;;2.81;100.00;95118.75;5035866;28;20210;-67
2024/03/09 03:51:43;;;;;;;15.93;5.53;;;;;;;2.46;100.00;95121.56;5035624;28;20421;-67
2024/03/09 03:54:10;;;;;;;12.50;4.97;;;;;;;2.65;100.00;95118.72;5036367;28;20351;-67
2024/03/09 03:56:36;;;;;;;19.23;6.97;;;;;;;2.76;100.00;95120.22;5036881;28;20528;-66
2024/03/09 03:59:03;;;;;;;14.90;5.70;;;;;;;2.80;100.00;95127.56;5035865;28;20577;-66
2024/03/09 04:01:31;;;;;;;22.87;6.97;;;;;;;2.78;100.00;95126.09;5035681;28;20209;-67
2024/03/09 04:03:58;;;;;;;17.33;5.30;;;;;;;2.66;100.00;95133.34;5036396;28;20230;-67
2024/03/09 04:06:26;;;;;;;12.67;5.80;;;;;;;2.89;100.00;95129.22;5035333;28;20688;-67
2024/03/09 04:08:52;;;;;;;13.27;5.37;;;;;;;2.83;100.00;95129.84;5035388;28;20208;-67
2024/03/09 04:11:19;;;;;;;15.93;5.50;;;;;;;2.82;100.00;95132.59;5035719;28;20614;-67
2024/03/09 04:13:45;;;;;;;12.00;5.47;;;;;;;2.78;100.00;95121.69;5036251;28;20226;-67
2024/03/09 04:16:12;;;;;;;11.97;4.90;;;;;;;2.76;100.00;95123.66;5035123;28;20671;-66
2024/03/09 04:18:38;;;;;;;13.80;5.70;;;;;;;2.81;100.00;95125.75;5036080;28;20398;-67
2024/03/09 04:21:07;;;;;;;13.13;5.83;;;;;;;2.78;100.00;95126.91;5035847;28;20692;-67
2024/03/09 04:23:36;;;;;;;15.87;6.40;;;;;;;2.88;100.00;95117.19;5035027;28;20227;-67
2024/03/09 04:26:03;;;;;;;13.60;6.30;;;;;;;2.69;100.00;95117.44;5035136;28;20231;-67
2024/03/09 04:28:30;;;;;;;12.57;5.47;;;;;;;2.67;100.00;95109.00;5036160;28;20248;-67
2024/03/09 04:30:57;;;;;;;15.23;6.27;;;;;;;2.68;100.00;95097.59;5035744;28;20237;-67
2024/03/09 04:33:24;;;;;;;11.43;4.80;;;;;;;2.64;100.00;95109.28;5036206;28;20276;-67
2024/03/09 04:35:52;;;;;;;17.37;5.93;;;;;;;2.73;100.00;95105.75;5035609;28;20237;-66
2024/03/09 04:38:19;;;;;;;11.23;4.77;;;;;;;2.78;100.00;95107.88;5036056;28;20359;-67
2024/03/09 04:40:48;;;;;;;14.10;6.07;;;;;;;2.80;100.00;95103.31;5035987;28;20199;-66
2024/03/09 04:43:16;;;;;;;14.57;5.93;;;;;;;2.65;100.00;95100.53;5036025;28;20309;-67
2024/03/09 04:45:43;;;;;;;16.60;5.53;;;;;;;2.62;100.00;95100.84;5035505;28;20584;-67
2024/03/09 04:48:10;;;;;;;16.50;6.83;;;;;;;2.67;100.00;95108.16;5035901;28;20317;-67
2024/03/09 04:50:38;;;;;;;15.10;6.03;;;;;;;2.67;100.00;95108.16;5035740;28;20216;-67
2024/03/09 04:53:05;;;;;;;16.17;6.70;;;;;;;2.82;100.00;95101.41;5035913;28;20208;-67
2024/03/09 04:55:32;;;;;;;15.17;6.50;;;;;;;2.83;100.00;95103.81;5034605;28;20611;-67
2024/03/09 04:58:00;;;;;;;17.57;6.53;;;;;;;2.86;100.00;95098.31;5036121;28;20211;-67
2024/03/09 05:00:29;;;;;;;12.90;5.60;;;;;;;2.80;100.00;95098.97;5035388;28;20612;-67
2024/03/09 05:02:56;;;;;;;15.47;5.73;;;;;;;2.59;100.00;95106.34;5034739;28;20203;-67
2024/03/09 05:05:23;;;;;;;18.20;6.33;;;;;;;2.51;100.00;95097.72;5034377;28;20206;-67
2024/03/09 05:07:51;;;;;;;17.30;6.13;;;;;;;2.57;100.00;95102.25;5035840;28;20209;-67
2024/03/09 05:10:19;;;;;;;17.17;7.07;;;;;;;2.39;100.00;95098.13;5035311;28;20673;-67
2024/03/09 05:12:50;;;;;;;18.20;6.03;;;;;;;2.31;100.00;95105.91;5034832;28;20227;-67
2024/03/09 05:15:18;;;;;;;17.23;6.13;;;;;;;2.25;100.00;95101.31;5035045;28;20235;-67
2024/03/09 05:17:44;;;;;;;18.03;6.63;;;;;;;2.20;100.00;95108.75;5034669;28;20229;-67
2024/03/09 05:20:19;;;;;;;21.43;7.00;;;;;;;2.24;100.00;95095.31;5035203;28;20209;-67
2024/03/09 05:22:46;;;;;;;17.50;6.70;;;;;;;2.16;100.00;95107.44;5035272;28;20205;-66
2024/03/09 05:25:12;;;;;;;17.43;6.20;;;;;;;2.16;100.00;95107.44;5033495;28;21025;-67
2024/03/09 05:27:41;;;;;;;17.47;5.97;;;;;;;2.15;100.00;95106.63;5034431;28;20362;-66
2024/03/09 05:30:10;;;;;;;16.43;6.10;;;;;;;2.18;100.00;95105.50;5034726;28;20266;-67
2024/03/09 05:32:38;;;;;;;15.07;6.07;;;;;;;2.12;100.00;95098.31;5034181;28;20277;-67
2024/03/09 05:35:11;;;;;;;19.63;7.70;;;;;;;2.11;100.00;95088.88;5036327;28;20240;-67
2024/03/09 05:37:39;;;;;;;22.63;9.13;;;;;;;2.10;100.00;95092.44;5038883;28;20224;-67
2024/03/09 05:40:09;;;;;;;17.60;7.10;;;;;;;2.26;100.00;95087.34;5038458;28;20911;-67
2024/03/09 05:42:36;;;;;;;20.10;7.00;;;;;;;2.10;100.00;95087.25;5038422;28;20203;-67
2024/03/09 05:45:03;;;;;;;19.37;7.03;;;;;;;1.97;100.00;95094.66;5037867;28;20942;-67
2024/03/09 05:47:29;;;;;;;14.77;6.20;;;;;;;1.81;100.00;95094.56;5039091;28;20197;-67
2024/03/09 05:49:57;;;;;;;19.70;7.10;;;;;;;1.94;100.00;95093.16;5038394;28;20206;-67
2024/03/09 05:52:24;;;;;;;16.23;6.43;;;;;;;2.05;100.00;95099.88;5038607;28;20209;-66
2024/03/09 05:54:50;;;;;;;19.97;7.63;;;;;;;2.08;100.00;95089.19;5038024;28;20262;-67
2024/03/09 05:57:18;;;;;;;19.83;7.03;;;;;;;2.05;100.00;95087.72;5037807;28;20228;-67
2024/03/09 05:59:45;;;;;;;25.63;7.93;;;;;;;2.07;100.00;95090.16;5038524;28;20259;-67
2024/03/09 06:02:13;;;;;;;16.57;6.27;;;;;;;2.08;100.00;95078.81;5038742;28;20211;-67
2024/03/09 06:04:40;;;;;;;20.03;7.70;;;;;;;2.04;100.00;95072.28;5037321;28;20225;-67
2024/03/09 06:07:08;;;;;;;22.07;6.60;;;;;;;2.08;100.00;95076.22;5038008;28;20197;-69
2024/03/09 06:09:35;;;;;;;20.40;7.27;;;;;;;1.53;100.00;95087.84;5038323;28;20279;-67
2024/03/09 06:12:01;;;;;;;17.07;7.50;;;;;;;1.86;100.00;95100.09;5037943;28;20212;-68
2024/03/09 06:14:28;;;;;;;20.77;8.43;;;;;;;1.97;100.00;95110.22;5037928;28;20221;-67
2024/03/09 06:16:54;;;;;;;19.13;7.70;;;;;;;1.92;100.00;95115.06;5039153;28;20719;-68
2024/03/09 06:19:21;;;;;;;20.27;7.90;;;;;;;1.95;100.00;95106.97;5038791;28;20206;-67
2024/03/09 06:21:48;;;;;;;20.63;7.20;;;;;;;1.97;100.00;95103.28;5037788;28;20216;-68
2024/03/09 06:24:16;;;;;;;22.37;7.80;;;;;;;2.06;100.00;95111.91;5037726;28;20569;-67
2024/03/09 06:26:43;;;;;;;18.87;6.77;;;;;;;2.22;100.00;95112.03;5038989;28;20205;-68
2024/03/09 06:29:10;;;;;;;21.43;7.53;;;;;;;2.14;100.00;95105.00;5038401;28;20264;-67
2024/03/09 06:31:37;;;;;;;18.63;7.77;;;;;;;2.16;100.00;95107.44;5038559;28;20212;-68
2024/03/09 06:34:03;;;;;;;16.63;6.93;;;;;;;2.43;100.00;95106.28;5038051;28;20827;-68
2024/03/09 06:36:30;;;;;;;20.70;8.17;;;;;;;2.53;100.00;95117.38;5037826;28;20228;-67
2024/03/09 06:38:57;;;;;;;23.43;8.57;;;;;;;2.54;100.00;95107.78;5038261;28;20716;-68
2024/03/09 06:41:25;;;;;;;21.47;7.93;;;;;;;2.85;100.00;95108.88;5038156;28;20198;-68
2024/03/09 06:43:51;;;;;;;22.03;8.20;;;;;;;2.81;100.00;95121.38;5038194;28;20221;-68
2024/03/09 06:46:18;;;;;;;20.90;8.37;;;;;;;2.97;100.00;95115.44;5036635;28;20206;-68
2024/03/09 06:48:44;;;;;;;24.13;7.93;;;;;;;3.07;100.00;95109.91;5038522;28;20201;-68
2024/03/09 06:51:11;;;;;;;21.27;7.43;;;;;;;3.17;100.00;95122.78;5038186;28;20247;-68
2024/03/09 06:53:37;;;;;;;21.73;8.13;;;;;;;3.22;100.00;95123.09;5037777;28;20507;-68
2024/03/09 06:56:04;;;;;;;19.27;6.70;;;;;;;3.22;100.00;95121.34;5037476;28;20202;-68
2024/03/09 06:58:33;;;;;;;23.77;8.13;;;;;;;3.49;100.00;95117.63;5038073;28;21070;-68
2024/03/09 07:01:01;;;;;;;20.97;7.53;;;;;;;3.47;100.00;95119.59;5038211;28;20206;-68
2024/03/09 07:03:27;;;;;;;18.27;6.80;;;;;;;3.53;100.00;95111.94;5037317;28;20713;-68
2024/03/09 07:05:54;;;;;;;16.40;6.40;;;;;;;3.48;100.00;95113.41;5036809;28;20199;-68
2024/03/09 07:08:21;;;;;;;23.23;7.97;;;;;;;3.55;100.00;95112.56;5037801;28;20210;-68
2024/03/09 07:10:48;;;;;;;19.87;7.53;;;;;;;3.50;100.00;95114.88;5037263;28;20213;-68
2024/03/09 07:13:15;;;;;;;16.50;6.77;;;;;;;3.75;100.00;95117.31;5037637;28;21137;-68
2024/03/09 07:15:43;;;;;;;15.03;6.73;;;;;;;3.61;100.00;95111.94;5036907;28;20205;-68
2024/03/09 07:18:10;;;;;;;15.27;6.87;;;;;;;3.53;100.00;95113.75;5037128;28;20583;-68
2024/03/09 07:20:37;;;;;;;13.87;6.07;;;;;;;3.58;100.00;95107.06;5036915;28;20290;-67
2024/03/09 07:23:05;;;;;;;19.57;6.40;;;;;;;3.80;100.00;95109.00;5036968;28;20206;-67
2024/03/09 07:25:32;;;;;;;18.57;7.30;;;;;;;4.02;100.00;95109.16;5035994;28;20897;-68
2024/03/09 07:28:00;;;;;;;18.50;6.53;;;;;;;4.01;100.00;95110.13;5036732;28;20494;-67
2024/03/09 07:30:27;;;;;;;15.23;6.57;;;;;;;4.24;100.00;95111.09;5037812;28;20208;-67
2024/03/09 07:32:55;;;;;;;19.10;6.77;;;;;;;4.49;100.00;95102.19;5037205;28;20558;-67
2024/03/09 07:35:25;;;;;;;19.80;7.53;;;;;;;4.43;100.00;95095.88;5036307;28;20523;-68
2024/03/09 07:37:53;;;;;;;16.87;7.10;;;;;;;4.56;100.00;95085.72;5036916;28;20223;-67
2024/03/09 07:40:21;;;;;;;13.53;6.00;;;;;;;4.78;100.00;95084.16;5036824;28;20792;-67
2024/03/09 07:42:50;;;;;;;15.17;6.57;;;;;;;4.67;100.00;95079.31;5036954;28;20215;-67
2024/03/09 07:45:17;;;;;;;15.00;6.70;;;;;;;4.79;100.00;95081.38;5036516;28;20290;-67
2024/03/09 07:47:46;;;;;;;25.13;7.13;;;;;;;4.87;100.00;95082.19;5036710;28;20193;-67
2024/03/09 07:50:15;;;;;;;15.20;6.60;;;;;;;5.01;100.00;95081.41;5035985;28;20679;-67
2024/03/09 07:52:47;;;;;;;17.20;5.93;;;;;;;5.00;100.00;95085.03;5037843;28;20207;-67
2024/03/09 07:55:15;;;;;;;19.97;7.37;;;;;;;5.03;100.00;95084.69;5036532;28;20228;-67
2024/03/09 07:57:43;;;;;;;18.57;7.03;;;;;;;4.76;100.00;95080.91;5035555;28;20843;-67
2024/03/09 08:00:16;;;;;;;17.60;7.30;;;;;;;5.13;100.00;95080.06;5036095;28;20208;-67
2024/03/09 08:02:43;;;;;;;19.03;7.17;;;;;;;4.94;100.00;95075.28;5037656;28;20214;-67
2024/03/09 08:05:14;;;;;;;14.63;6.93;;;;;;;5.02;100.00;95079.66;5035531;28;20228;-67
2024/03/09 08:07:42;;;;;;;16.80;7.90;;;;;;;5.24;100.00;95087.50;5036663;28;20307;-67
2024/03/09 08:10:09;;;;;;;17.23;7.07;;;;;;;5.28;100.00;95083.53;5036357;28;20204;-67
2024/03/09 08:12:36;;;;;;;13.67;6.33;;;;;;;5.26;100.00;95084.72;5036637;28;20212;-67
2024/03/09 08:15:04;;;;;;;20.33;8.10;;;;;;;5.41;100.00;95091.66;5035424;28;20596;-68
2024/03/09 08:17:30;;;;;;;18.27;6.80;;;;;;;5.67;100.00;95084.28;5036692;28;20242;-67
2024/03/09 08:19:59;;;;;;;20.10;7.77;;;;;;;5.75;100.00;95076.34;5036116;28;20209;-67
2024/03/09 08:22:25;;;;;;;17.23;7.03;;;;;;;5.74;100.00;95079.94;5036576;28;20201;-67
2024/03/09 08:24:53;;;;;;;17.53;6.63;;;;;;;6.17;100.00;95082.69;5035814;28;20217;-67
2024/03/09 08:27:20;;;;;;;14.23;7.07;;;;;;;5.97;100.00;95086.00;5036279;28;20401;-67
2024/03/09 08:29:47;;;;;;;16.10;7.03;;;;;;;6.29;100.00;95082.09;5036338;28;20216;-67
2024/03/09 08:32:13;;;;;;;16.93;7.43;;;;;;;6.11;100.00;95073.78;5036013;28;20201;-67
2024/03/09 08:34:40;;;;;;;18.57;7.10;;;;;;;6.35;100.00;95076.16;5035553;28;20233;-67
2024/03/09 08:37:08;;;;;;;14.77;5.90;;;;;;;6.31;100.00;95074.88;5036581;28;20217;-67
2024/03/09 08:39:35;;;;;;;16.83;6.83;;;;;;;6.33;100.00;95072.88;5035905;28;20205;-67
2024/03/09 08:42:05;;;;;;;18.03;7.80;;;;;;;6.29;100.00;95069.00;5036004;28;20212;-67
2024/03/09 08:44:33;;;;;;;25.77;7.50;;;;;;;6.28;100.00;95074.44;5035452;28;20217;-67
2024/03/09 08:47:00;;;;;;;19.70;7.40;;;;;;;6.30;100.00;95072.44;5035810;28;21100;-67
2024/03/09 08:49:26;;;;;;;17.30;6.77;;;;;;;6.35;100.00;95067.47;5036234;28;20197;-67
2024/03/09 08:51:53;;;;;;;16.63;6.60;;;;;;;6.42;100.00;95069.19;5035974;28;20564;-67
2024/03/09 08:54:19;;;;;;;16.33;7.20;;;;;;;6.59;100.00;95070.63;5034849;28;20232;-67
2024/03/09 08:56:47;;;;;;;21.20;7.47;;;;;;;6.46;100.00;95072.28;5036453;28;20197;-68
2024/03/09 08:59:15;;;;;;;18.50;6.67;;;;;;;6.72;100.00;95062.94;5036110;28;20626;-67
2024/03/09 09:01:41;;;;;;;19.27;6.67;;;;;;;6.75;100.00;95065.22;5035583;28;20316;-67
2024/03/09 09:04:08;;;;;;;18.93;7.20;;;;;;;6.78;100.00;95068.28;5035807;28;20225;-67
2024/03/09 09:06:36;;;;;;;16.00;7.50;;;;;;;6.85;100.00;95058.72;5036021;28;20204;-68
2024/03/09 09:09:09;;;;;;;17.67;7.10;;;;;;;7.09;100.00;95060.19;5037823;28;20217;-67
2024/03/09 09:11:35;;;;;;;16.07;7.70;;;;;;;7.32;100.00;95059.06;5039897;28;20205;-67
2024/03/09 09:14:03;;;;;;;17.93;7.60;;;;;;;6.99;100.00;95062.31;5039645;28;20279;-68
2024/03/09 09:16:31;;;;;;;19.33;7.97;;;;;;;7.34;100.00;95054.44;5039214;28;20209;-66
2024/03/09 09:18:58;;;;;;;17.47;7.50;;;;;;;7.33;100.00;95043.16;5039864;28;20240;-67
2024/03/09 09:21:25;;;;;;;17.30;6.67;;;;;;;7.17;100.00;95039.94;5039828;28;20221;-67
2024/03/09 09:23:51;;;;;;;14.20;6.17;;;;;;;7.49;100.00;95042.09;5038904;28;20521;-67
2024/03/09 09:26:17;;;;;;;17.10;7.10;;;;;;;7.78;100.00;95042.78;5038925;28;20211;-67
2024/03/09 09:28:44;;;;;;;15.93;6.87;;;;;;;7.98;100.00;95034.06;5039662;28;20228;-67
2024/03/09 09:31:11;;;;;;;17.40;7.10;;;;;;;8.29;100.00;95026.63;5039800;28;20198;-66
2024/03/09 09:33:39;;;;;;;18.93;7.43;;;;;;;8.21;100.00;95024.16;5039422;28;20224;-67
2024/03/09 09:36:05;;;;;;;20.47;6.67;;;;;;;8.36;100.00;95024.06;5038604;28;20201;-67
2024/03/09 09:38:32;;;;;;;13.20;5.87;;;;;;;8.16;100.00;95016.06;5039497;28;21061;-67
2024/03/09 09:40:59;;;;;;;17.07;6.67;;;;;;;8.24;100.00;95015.09;5039493;28;20252;-67
2024/03/09 09:43:26;;;;;;;14.60;6.83;;;;;;;8.33;100.00;95013.97;5039091;28;20223;-68
2024/03/09 09:45:53;;;;;;;19.93;7.47;;;;;;;8.62;100.00;95014.53;5039174;28;20205;-67
2024/03/09 09:48:20;;;;;;;16.83;7.30;;;;;;;8.55;100.00;95013.66;5039586;28;20308;-67
2024/03/09 09:50:50;;;;;;;17.43;7.03;;;;;;;9.16;100.00;95010.88;5039024;28;20208;-67
2024/03/09 09:53:18;;;;;;;15.30;5.77;;;;;;;9.21;100.00;95005.84;5038423;28;21139;-66
2024/03/09 09:55:46;;;;;;;17.30;5.87;;;;;;;9.10;100.00;95009.88;5039009;28;20205;-67
2024/03/09 09:58:13;;;;;;;13.43;5.73;;;;;;;9.17;100.00;95007.25;5039001;28;20731;-67
2024/03/09 10:00:40;;;;;;;15.03;5.93;;;;;;;9.41;100.00;95007.53;5039329;28;20198;-67
2024/03/09 10:03:07;;;;;;;14.77;6.10;;;;;;;9.37;100.00;95005.50;5038908;28;20206;-68
2024/03/09 10:05:34;;;;;;;18.93;6.80;;;;;;;9.46;100.00;94999.06;5038074;28;20201;-67
2024/03/09 10:08:04;;;;;;;20.67;6.97;;;;;;;9.68;100.00;94986.31;5038880;28;20295;-67
2024/03/09 10:10:32;;;;;;;14.80;6.97;;;;;;;9.82;100.00;94984.50;5038945;28;20201;-67
2024/03/09 10:13:06;;;;;;;14.27;5.93;;;;;;;10.00;100.00;94979.47;5038261;28;20532;-67
2024/03/09 10:15:33;;;;;;;16.00;6.17;;;;;;;9.65;100.00;94978.03;5036625;28;21101;-67
2024/03/09 10:18:00;;;;;;;14.93;6.40;;;;;;;9.95;100.00;94977.44;5039171;28;20210;-68
2024/03/09 10:20:27;;;;;;;17.93;7.20;;;;;;;9.76;100.00;94983.50;5037508;28;20212;-67
2024/03/09 10:22:53;;;;;;;15.17;5.90;;;;;;;9.80;100.00;94984.72;5037199;28;20202;-67
2024/03/09 10:25:26;;;;;;;16.80;6.17;;;;;;;10.11;100.00;94981.50;5037612;28;20209;-67
2024/03/09 10:27:53;;;;;;;14.30;5.93;;;;;;;9.71;100.00;94988.53;5037835;28;20678;-67
2024/03/09 10:30:20;;;;;;;16.87;6.70;;;;;;;10.03;100.00;94971.97;5037605;28;20208;-67
2024/03/09 10:32:47;;;;;;;16.87;6.00;;;;;;;9.97;100.00;94982.50;5037820;28;20203;-68
2024/03/09 10:35:14;;;;;;;15.57;6.67;;;;;;;10.19;100.00;94976.81;5036752;28;20229;-68
2024/03/09 10:37:42;;;;;;;15.53;6.20;;;;;;;10.69;100.00;94961.09;5037664;28;20327;-68
2024/03/09 10:40:12;;;;;;;17.13;5.93;;;;;;;10.69;100.00;94950.56;5038173;28;20205;-68
2024/03/09 10:42:45;;;;;;;15.37;6.33;;;;;;;10.71;100.00;94960.88;5038247;28;20280;-68
2024/03/09 10:45:14;;;;;;;15.03;7.13;;;;;;;11.06;100.00;94953.22;5037151;28;20283;-67
2024/03/09 10:47:47;;;;;;;15.47;6.20;;;;;;;11.37;100.00;94960.34;5037928;28;20280;-68
2024/03/09 10:50:19;;;;;;;16.13;6.03;;;;;;;11.15;100.00;94951.97;5037993;28;21122;-68
2024/03/09 10:52:53;;;;;;;12.57;5.87;;;;;;;11.32;100.00;94953.06;5037614;28;20204;-68
2024/03/09 10:55:24;;;;;;;17.27;7.03;;;;;;;11.41;100.00;94946.53;5036958;28;20247;-67
2024/03/09 10:57:53;;;;;;;14.57;6.03;;;;;;;11.42;100.00;94942.88;5038565;28;20229;-67
2024/03/09 11:00:28;;;;;;;15.43;7.07;;;;;;;11.43;100.00;94936.56;5037858;28;20205;-67
2024/03/09 11:02:56;;;;;;;14.23;6.63;;;;;;;11.45;100.00;94929.25;5037981;28;20217;-67
2024/03/09 11:05:23;;;;;;;12.77;5.27;;;;;;;12.00;100.00;94923.94;5036393;28;20483;-67
2024/03/09 11:07:52;;;;;;;16.23;5.33;;;;;;;12.03;100.00;94923.53;5037807;28;20197;-68
2024/03/09 11:10:19;;;;;;;16.17;6.20;;;;;;;12.16;100.00;94919.97;5037896;28;20198;-68
2024/03/09 11:12:46;;;;;;;16.83;6.17;;;;;;;11.97;100.00;94916.47;5037462;28;20779;-68
2024/03/09 11:15:14;;;;;;;14.40;5.87;;;;;;;12.44;100.00;94918.44;5036875;28;20221;-68
2024/03/09 11:17:44;;;;;;;14.80;5.70;;;;;;;12.62;100.00;94916.59;5037779;28;20311;-68
2024/03/09 11:20:12;;;;;;;15.33;6.63;;;;;;;12.53;100.00;94912.63;5037405;28;20232;-68
2024/03/09 11:22:40;;;;;;;14.87;6.03;;;;;;;12.75;100.00;94900.56;5037690;28;20651;-68
2024/03/09 11:25:11;;;;;;;15.20;6.57;;;;;;;12.78;100.00;94903.59;5036679;28;21063;-68